sensor_id;sensor_type;location;lat;lon;timestamp;pressure;altitude;pressure_sealevel;temperature;humidity
27202;BME280;14717;46.924;15.474;2023-04-04T00:01:21;98281.63;;;2.00;46.13
27202;BME280;14717;46.924;15.474;2023-04-04T00:03:46;98291.53;;;1.94;46.45
27202;BME280;14717;46.924;15.474;2023-04-04T00:06:16;98279.66;;;1.89;47.05
27202;BME280;14717;46.924;15.474;2023-04-04T00:08:41;98298.25;;;1.92;45.93
27202;BME280;14717;46.924;15.474;2023-04-04T00:11:07;98287.81;;;1.89;46.36
27202;BME280;14717;46.924;15.474;2023-04-04T00:13:32;98291.78;;;1.75;47.29
27202;BME280;14717;46.924;15.474;2023-04-04T00:15:58;98291.63;;;1.70;47.15
27202;BME280;14717;46.924;15.474;2023-04-04T00:18:23;98288.59;;;1.60;47.43
27202;BME280;14717;46.924;15.474;2023-04-04T00:20:49;98290.94;;;1.57;46.99
27202;BME280;14717;46.924;15.474;2023-04-04T00:23:14;98288.72;;;1.47;48.45
27202;BME280;14717;46.924;15.474;2023-04-04T00:25:39;98288.28;;;1.50;48.72
27202;BME280;14717;46.924;15.474;2023-04-04T00:28:05;98290.19;;;1.50;49.72
27202;BME280;14717;46.924;15.474;2023-04-04T00:30:30;98290.56;;;1.53;49.01
27202;BME280;14717;46.924;15.474;2023-04-04T00:32:56;98284.03;;;1.54;49.10
27202;BME280;14717;46.924;15.474;2023-04-04T00:35:22;98290.13;;;1.56;48.95
27202;BME280;14717;46.924;15.474;2023-04-04T00:37:47;98280.84;;;1.39;49.39
27202;BME280;14717;46.924;15.474;2023-04-04T00:40:13;98279.38;;;1.43;49.91
27202;BME280;14717;46.924;15.474;2023-04-04T00:42:39;98282.88;;;1.26;49.97
27202;BME280;14717;46.924;15.474;2023-04-04T00:45:07;98273.81;;;1.14;50.10
27202;BME280;14717;46.924;15.474;2023-04-04T00:47:33;98273.25;;;1.06;51.02
27202;BME280;14717;46.924;15.474;2023-04-04T00:49:59;98282.63;;;1.10;50.86
27202;BME280;14717;46.924;15.474;2023-04-04T00:52:25;98288.97;;;1.04;51.19
27202;BME280;14717;46.924;15.474;2023-04-04T00:54:51;98275.22;;;0.99;50.65
27202;BME280;14717;46.924;15.474;2023-04-04T00:57:17;98275.22;;;0.99;50.29
27202;BME280;14717;46.924;15.474;2023-04-04T00:59:43;98275.28;;;0.92;50.44
27202;BME280;14717;46.924;15.474;2023-04-04T01:02:09;98276.53;;;0.90;50.27
27202;BME280;14717;46.924;15.474;2023-04-04T01:04:35;98276.53;;;0.90;50.95
27202;BME280;14717;46.924;15.474;2023-04-04T01:07:01;98279.09;;;0.85;51.37
27202;BME280;14717;46.924;15.474;2023-04-04T01:09:27;98277.88;;;0.81;51.52
27202;BME280;14717;46.924;15.474;2023-04-04T01:11:54;98269.88;;;0.86;52.49
27202;BME280;14717;46.924;15.474;2023-04-04T01:14:20;98274.16;;;0.76;52.34
27202;BME280;14717;46.924;15.474;2023-04-04T01:16:47;98270.31;;;0.83;52.74
27202;BME280;14717;46.924;15.474;2023-04-04T01:19:30;98264.22;;;0.87;53.08
27202;BME280;14717;46.924;15.474;2023-04-04T01:21:58;98264.00;;;0.89;53.00
27202;BME280;14717;46.924;15.474;2023-04-04T01:24:27;98268.78;;;0.69;52.62
27202;BME280;14717;46.924;15.474;2023-04-04T01:26:55;98259.06;;;0.55;53.17
27202;BME280;14717;46.924;15.474;2023-04-04T01:29:20;98260.56;;;0.51;54.81
27202;BME280;14717;46.924;15.474;2023-04-04T01:31:49;98257.41;;;0.54;55.03
27202;BME280;14717;46.924;15.474;2023-04-04T01:34:27;98258.41;;;0.60;54.06
27202;BME280;14717;46.924;15.474;2023-04-04T01:37:09;98256.13;;;0.57;54.54
27202;BME280;14717;46.924;15.474;2023-04-04T01:40:02;98259.66;;;0.57;54.39
27202;BME280;14717;46.924;15.474;2023-04-04T01:42:29;98262.84;;;0.54;56.54
27202;BME280;14717;46.924;15.474;2023-04-04T01:44:55;98254.59;;;0.61;55.42
27202;BME280;14717;46.924;15.474;2023-04-04T01:47:21;98252.28;;;0.40;56.19
27202;BME280;14717;46.924;15.474;2023-04-04T01:49:47;98253.31;;;0.15;57.81
27202;BME280;14717;46.924;15.474;2023-04-04T01:52:13;98245.00;;;0.03;57.37
27202;BME280;14717;46.924;15.474;2023-04-04T01:54:38;98246.63;;;0.11;57.08
27202;BME280;14717;46.924;15.474;2023-04-04T01:57:03;98249.81;;;0.01;57.39
27202;BME280;14717;46.924;15.474;2023-04-04T01:59:29;98247.97;;;-0.04;58.40
27202;BME280;14717;46.924;15.474;2023-04-04T02:01:54;98248.91;;;0.14;58.32
27202;BME280;14717;46.924;15.474;2023-04-04T02:04:20;98246.63;;;0.11;57.55
27202;BME280;14717;46.924;15.474;2023-04-04T02:06:46;98246.34;;;-0.12;58.38
27202;BME280;14717;46.924;15.474;2023-04-04T02:09:11;98243.47;;;-0.23;58.36
27202;BME280;14717;46.924;15.474;2023-04-04T02:11:37;98247.22;;;-0.18;58.96
27202;BME280;14717;46.924;15.474;2023-04-04T02:14:03;98248.69;;;-0.22;59.09
27202;BME280;14717;46.924;15.474;2023-04-04T02:16:29;98241.44;;;-0.34;59.66
27202;BME280;14717;46.924;15.474;2023-04-04T02:18:55;98236.25;;;-0.42;60.84
27202;BME280;14717;46.924;15.474;2023-04-04T02:21:20;98234.75;;;-0.32;61.27
27202;BME280;14717;46.924;15.474;2023-04-04T02:23:46;98244.56;;;-0.31;60.44
27202;BME280;14717;46.924;15.474;2023-04-04T02:26:11;98242.50;;;-0.42;60.32
27202;BME280;14717;46.924;15.474;2023-04-04T02:28:36;98237.31;;;-0.49;60.74
27202;BME280;14717;46.924;15.474;2023-04-04T02:31:02;98230.06;;;-0.55;62.50
27202;BME280;14717;46.924;15.474;2023-04-04T02:33:28;98227.38;;;-0.62;61.43
27202;BME280;14717;46.924;15.474;2023-04-04T02:35:59;98231.34;;;-0.71;62.74
27202;BME280;14717;46.924;15.474;2023-04-04T02:38:25;98221.59;;;-0.85;62.93
27202;BME280;14717;46.924;15.474;2023-04-04T02:40:51;98221.59;;;-0.78;62.71
27202;BME280;14717;46.924;15.474;2023-04-04T02:43:17;98216.50;;;-0.55;63.12
27202;BME280;14717;46.924;15.474;2023-04-04T02:45:42;98214.47;;;-0.73;61.19
27202;BME280;14717;46.924;15.474;2023-04-04T02:48:07;98209.41;;;-0.56;61.61
27202;BME280;14717;46.924;15.474;2023-04-04T02:50:34;98208.19;;;-0.67;60.66
27202;BME280;14717;46.924;15.474;2023-04-04T02:53:00;98205.31;;;-0.78;60.44
27202;BME280;14717;46.924;15.474;2023-04-04T02:55:26;98202.41;;;-0.77;59.78
27202;BME280;14717;46.924;15.474;2023-04-04T02:57:52;98195.69;;;-0.68;60.04
27202;BME280;14717;46.924;15.474;2023-04-04T03:00:17;98197.75;;;-0.63;59.71
27202;BME280;14717;46.924;15.474;2023-04-04T03:02:43;98197.13;;;-0.59;59.80
27202;BME280;14717;46.924;15.474;2023-04-04T03:05:08;98192.59;;;-0.78;61.87
27202;BME280;14717;46.924;15.474;2023-04-04T03:07:34;98185.31;;;-0.77;61.92
27202;BME280;14717;46.924;15.474;2023-04-04T03:09:59;98181.13;;;-0.73;62.26
27202;BME280;14717;46.924;15.474;2023-04-04T03:12:24;98187.34;;;-0.66;62.05
27202;BME280;14717;46.924;15.474;2023-04-04T03:14:51;98185.22;;;-0.64;61.69
27202;BME280;14717;46.924;15.474;2023-04-04T03:17:17;98179.22;;;-0.73;61.37
27202;BME280;14717;46.924;15.474;2023-04-04T03:19:43;98180.44;;;-0.62;62.48
27202;BME280;14717;46.924;15.474;2023-04-04T03:22:08;98178.13;;;-0.52;61.88
27202;BME280;14717;46.924;15.474;2023-04-04T03:24:34;98184.28;;;-0.89;61.11
27202;BME280;14717;46.924;15.474;2023-04-04T03:27:00;98174.09;;;-0.87;61.28
27202;BME280;14717;46.924;15.474;2023-04-04T03:29:26;98175.72;;;-0.86;62.76
27202;BME280;14717;46.924;15.474;2023-04-04T03:31:51;98186.16;;;-0.83;62.98
27202;BME280;14717;46.924;15.474;2023-04-04T03:34:16;98176.22;;;-1.02;62.76
27202;BME280;14717;46.924;15.474;2023-04-04T03:36:42;98166.19;;;-0.95;63.96
27202;BME280;14717;46.924;15.474;2023-04-04T03:39:07;98174.94;;;-0.93;64.03
27202;BME280;14717;46.924;15.474;2023-04-04T03:41:34;98169.75;;;-1.01;64.56
27202;BME280;14717;46.924;15.474;2023-04-04T03:43:59;98167.41;;;-0.91;65.16
27202;BME280;14717;46.924;15.474;2023-04-04T03:46:25;98172.38;;;-0.75;63.84
27202;BME280;14717;46.924;15.474;2023-04-04T03:48:50;98172.00;;;-0.91;64.05
27202;BME280;14717;46.924;15.474;2023-04-04T03:51:27;98173.03;;;-0.86;64.95
27202;BME280;14717;46.924;15.474;2023-04-04T03:53:52;98173.72;;;-1.03;64.89
27202;BME280;14717;46.924;15.474;2023-04-04T03:56:18;98171.44;;;-1.06;65.02
27202;BME280;14717;46.924;15.474;2023-04-04T03:58:44;98169.94;;;-0.96;64.74
27202;BME280;14717;46.924;15.474;2023-04-04T04:01:10;98168.16;;;-1.21;65.04
27202;BME280;14717;46.924;15.474;2023-04-04T04:03:35;98175.47;;;-1.34;66.04
27202;BME280;14717;46.924;15.474;2023-04-04T04:06:01;98177.53;;;-1.36;65.87
27202;BME280;14717;46.924;15.474;2023-04-04T04:08:27;98167.13;;;-1.27;66.50
27202;BME280;14717;46.924;15.474;2023-04-04T04:10:52;98169.16;;;-1.16;65.73
27202;BME280;14717;46.924;15.474;2023-04-04T04:13:19;98171.22;;;-1.05;65.60
27202;BME280;14717;46.924;15.474;2023-04-04T04:15:44;98163.31;;;-1.13;65.10
27202;BME280;14717;46.924;15.474;2023-04-04T04:18:10;98161.66;;;-1.14;66.10
27202;BME280;14717;46.924;15.474;2023-04-04T04:20:35;98167.50;;;-1.17;65.53
27202;BME280;14717;46.924;15.474;2023-04-04T04:23:00;98172.06;;;-1.17;66.56
27202;BME280;14717;46.924;15.474;2023-04-04T04:25:26;98170.22;;;-1.17;66.83
27202;BME280;14717;46.924;15.474;2023-04-04T04:27:54;98171.25;;;-1.18;67.24
27202;BME280;14717;46.924;15.474;2023-04-04T04:30:20;98172.09;;;-1.30;66.40
27202;BME280;14717;46.924;15.474;2023-04-04T04:32:48;98175.25;;;-1.27;67.42
27202;BME280;14717;46.924;15.474;2023-04-04T04:35:14;98171.69;;;-1.33;67.59
27202;BME280;14717;46.924;15.474;2023-04-04T04:37:39;98182.31;;;-1.38;67.20
27202;BME280;14717;46.924;15.474;2023-04-04T04:40:05;98180.47;;;-1.44;67.10
27202;BME280;14717;46.924;15.474;2023-04-04T04:42:31;98173.16;;;-1.31;67.22
27202;BME280;14717;46.924;15.474;2023-04-04T04:44:56;98175.88;;;-1.31;66.43
27202;BME280;14717;46.924;15.474;2023-04-04T04:47:21;98177.53;;;-1.36;67.00
27202;BME280;14717;46.924;15.474;2023-04-04T04:49:47;98182.75;;;-1.41;67.46
27202;BME280;14717;46.924;15.474;2023-04-04T04:52:14;98182.13;;;-1.43;66.29
27202;BME280;14717;46.924;15.474;2023-04-04T04:54:39;98190.47;;;-1.51;66.46
27202;BME280;14717;46.924;15.474;2023-04-04T04:57:04;98190.06;;;-1.48;67.06
27202;BME280;14717;46.924;15.474;2023-04-04T04:59:30;98185.91;;;-1.51;66.83
27202;BME280;14717;46.924;15.474;2023-04-04T05:01:56;98190.88;;;-1.41;67.98
27202;BME280;14717;46.924;15.474;2023-04-04T05:04:21;98190.44;;;-1.38;67.40
27202;BME280;14717;46.924;15.474;2023-04-04T05:06:46;98194.81;;;-1.25;66.79
27202;BME280;14717;46.924;15.474;2023-04-04T05:09:13;98201.28;;;-1.38;67.30
27202;BME280;14717;46.924;15.474;2023-04-04T05:11:38;98206.50;;;-1.30;68.26
27202;BME280;14717;46.924;15.474;2023-04-04T05:14:04;98212.97;;;-1.38;67.63
27202;BME280;14717;46.924;15.474;2023-04-04T05:16:30;98206.91;;;-1.27;67.26
27202;BME280;14717;46.924;15.474;2023-04-04T05:18:56;98206.28;;;-1.42;68.37
27202;BME280;14717;46.924;15.474;2023-04-04T05:21:21;98202.94;;;-1.25;68.49
27202;BME280;14717;46.924;15.474;2023-04-04T05:23:47;98209.00;;;-1.42;66.50
27202;BME280;14717;46.924;15.474;2023-04-04T05:26:13;98209.22;;;-1.43;66.91
27202;BME280;14717;46.924;15.474;2023-04-04T05:28:38;98212.13;;;-1.32;67.49
27202;BME280;14717;46.924;15.474;2023-04-04T05:31:05;98209.38;;;-1.06;67.93
27202;BME280;14717;46.924;15.474;2023-04-04T05:33:31;98207.81;;;-0.77;66.88
27202;BME280;14717;46.924;15.474;2023-04-04T05:35:56;98213.63;;;-0.67;65.39
27202;BME280;14717;46.924;15.474;2023-04-04T05:38:23;98210.69;;;-0.65;65.67
27202;BME280;14717;46.924;15.474;2023-04-04T05:40:48;98213.97;;;-0.50;66.12
27202;BME280;14717;46.924;15.474;2023-04-04T05:43:14;98212.19;;;-0.26;66.35
27202;BME280;14717;46.924;15.474;2023-04-04T05:45:39;98218.59;;;-0.14;64.89
27202;BME280;14717;46.924;15.474;2023-04-04T05:48:04;98210.38;;;-0.01;63.58
27202;BME280;14717;46.924;15.474;2023-04-04T05:50:30;98219.03;;;0.14;62.30
27202;BME280;14717;46.924;15.474;2023-04-04T05:52:55;98221.16;;;0.36;62.72
27202;BME280;14717;46.924;15.474;2023-04-04T05:55:21;98217.91;;;0.52;59.31
27202;BME280;14717;46.924;15.474;2023-04-04T05:57:48;98217.47;;;0.79;60.75
27202;BME280;14717;46.924;15.474;2023-04-04T06:00:13;98219.88;;;0.87;62.30
27202;BME280;14717;46.924;15.474;2023-04-04T06:02:40;98220.22;;;1.15;63.27
27202;BME280;14717;46.924;15.474;2023-04-04T06:05:06;98216.47;;;1.16;64.39
27202;BME280;14717;46.924;15.474;2023-04-04T06:07:32;98218.13;;;1.52;64.46
27202;BME280;14717;46.924;15.474;2023-04-04T06:09:57;98202.94;;;1.92;64.10
27202;BME280;14717;46.924;15.474;2023-04-04T06:12:22;98206.25;;;1.94;62.69
27202;BME280;14717;46.924;15.474;2023-04-04T06:14:48;98210.75;;;2.17;62.34
27202;BME280;14717;46.924;15.474;2023-04-04T06:17:13;98198.59;;;2.31;61.67
27202;BME280;14717;46.924;15.474;2023-04-04T06:19:38;98208.38;;;2.50;60.28
27202;BME280;14717;46.924;15.474;2023-04-04T06:22:04;98209.22;;;2.62;56.94
27202;BME280;14717;46.924;15.474;2023-04-04T06:24:29;98204.00;;;2.60;53.06
27202;BME280;14717;46.924;15.474;2023-04-04T06:26:54;98212.22;;;2.95;53.70
27202;BME280;14717;46.924;15.474;2023-04-04T06:29:20;98202.94;;;3.18;51.25
27202;BME280;14717;46.924;15.474;2023-04-04T06:31:45;98210.06;;;2.96;48.69
27202;BME280;14717;46.924;15.474;2023-04-04T06:34:11;98202.59;;;3.15;49.50
27202;BME280;14717;46.924;15.474;2023-04-04T06:36:36;98203.50;;;3.54;49.60
27202;BME280;14717;46.924;15.474;2023-04-04T06:39:01;98201.22;;;3.63;47.15
27202;BME280;14717;46.924;15.474;2023-04-04T06:41:27;98203.03;;;3.46;48.68
27202;BME280;14717;46.924;15.474;2023-04-04T06:43:52;98204.00;;;3.40;48.20
27202;BME280;14717;46.924;15.474;2023-04-04T06:46:17;98214.09;;;3.28;48.95
27202;BME280;14717;46.924;15.474;2023-04-04T06:48:43;98207.13;;;3.32;49.23
27202;BME280;14717;46.924;15.474;2023-04-04T06:51:09;98201.66;;;3.21;48.00
27202;BME280;14717;46.924;15.474;2023-04-04T06:53:35;98204.38;;;3.32;47.04
27202;BME280;14717;46.924;15.474;2023-04-04T06:56:01;98204.81;;;3.52;46.18
27202;BME280;14717;46.924;15.474;2023-04-04T06:58:27;98201.88;;;3.53;44.90
27202;BME280;14717;46.924;15.474;2023-04-04T07:00:52;98204.28;;;3.78;43.97
27202;BME280;14717;46.924;15.474;2023-04-04T07:03:17;98201.00;;;4.03;43.33
27202;BME280;14717;46.924;15.474;2023-04-04T07:05:44;98197.09;;;3.99;41.92
27202;BME280;14717;46.924;15.474;2023-04-04T07:08:09;98198.44;;;4.13;42.32
27202;BME280;14717;46.924;15.474;2023-04-04T07:10:35;98195.63;;;4.08;41.55
27202;BME280;14717;46.924;15.474;2023-04-04T07:13:00;98204.63;;;3.81;40.33
27202;BME280;14717;46.924;15.474;2023-04-04T07:15:26;98205.50;;;4.09;41.50
27202;BME280;14717;46.924;15.474;2023-04-04T07:17:52;98203.16;;;4.01;39.90
27202;BME280;14717;46.924;15.474;2023-04-04T07:20:17;98191.44;;;3.89;39.86
27202;BME280;14717;46.924;15.474;2023-04-04T07:22:43;98194.19;;;4.06;39.36
27202;BME280;14717;46.924;15.474;2023-04-04T07:25:09;98194.47;;;4.04;40.17
27202;BME280;14717;46.924;15.474;2023-04-04T07:27:35;98187.81;;;4.28;39.92
27202;BME280;14717;46.924;15.474;2023-04-04T07:30:01;98190.34;;;4.62;39.38
27202;BME280;14717;46.924;15.474;2023-04-04T07:32:26;98183.13;;;5.05;38.52
27202;BME280;14717;46.924;15.474;2023-04-04T07:34:53;98185.94;;;4.77;39.02
27202;BME280;14717;46.924;15.474;2023-04-04T07:37:19;98190.50;;;4.56;39.74
27202;BME280;14717;46.924;15.474;2023-04-04T07:39:46;98181.22;;;4.89;39.30
27202;BME280;14717;46.924;15.474;2023-04-04T07:42:14;98188.09;;;5.08;37.97
27202;BME280;14717;46.924;15.474;2023-04-04T07:44:39;98190.75;;;5.19;37.66
27202;BME280;14717;46.924;15.474;2023-04-04T07:47:05;98200.69;;;5.09;37.13
27202;BME280;14717;46.924;15.474;2023-04-04T07:49:31;98196.72;;;5.33;36.82
27202;BME280;14717;46.924;15.474;2023-04-04T07:51:56;98195.47;;;5.24;35.73
27202;BME280;14717;46.924;15.474;2023-04-04T07:54:22;98196.78;;;5.38;36.88
27202;BME280;14717;46.924;15.474;2023-04-04T07:56:58;98198.66;;;5.16;35.91
27202;BME280;14717;46.924;15.474;2023-04-04T07:59:24;98186.69;;;5.06;35.61
27202;BME280;14717;46.924;15.474;2023-04-04T08:01:49;98193.47;;;5.57;37.26
27202;BME280;14717;46.924;15.474;2023-04-04T08:04:15;98180.69;;;5.62;36.61
27202;BME280;14717;46.924;15.474;2023-04-04T08:06:40;98188.34;;;5.60;37.22
27202;BME280;14717;46.924;15.474;2023-04-04T08:09:06;98189.72;;;5.25;36.28
27202;BME280;14717;46.924;15.474;2023-04-04T08:11:32;98187.69;;;5.16;36.84
27202;BME280;14717;46.924;15.474;2023-04-04T08:13:57;98193.75;;;5.18;35.06
27202;BME280;14717;46.924;15.474;2023-04-04T08:16:22;98189.66;;;5.74;36.68
27202;BME280;14717;46.924;15.474;2023-04-04T08:18:48;98183.38;;;5.57;35.11
27202;BME280;14717;46.924;15.474;2023-04-04T08:21:13;98186.47;;;5.82;35.93
27202;BME280;14717;46.924;15.474;2023-04-04T08:23:39;98175.00;;;5.85;35.91
27202;BME280;14717;46.924;15.474;2023-04-04T08:26:04;98169.22;;;6.08;35.63
27202;BME280;14717;46.924;15.474;2023-04-04T08:28:30;98177.25;;;5.93;34.84
27202;BME280;14717;46.924;15.474;2023-04-04T08:30:55;98179.75;;;5.94;34.26
27202;BME280;14717;46.924;15.474;2023-04-04T08:33:21;98180.16;;;5.82;35.20
27202;BME280;14717;46.924;15.474;2023-04-04T08:35:48;98170.84;;;5.83;35.44
27202;BME280;14717;46.924;15.474;2023-04-04T08:38:13;98173.63;;;5.88;34.86
27202;BME280;14717;46.924;15.474;2023-04-04T08:40:39;98162.94;;;5.86;34.65
27202;BME280;14717;46.924;15.474;2023-04-04T08:43:05;98163.56;;;5.72;34.01
27202;BME280;14717;46.924;15.474;2023-04-04T08:45:31;98151.63;;;6.04;35.23
27202;BME280;14717;46.924;15.474;2023-04-04T08:48:00;98144.28;;;6.35;34.30
27202;BME280;14717;46.924;15.474;2023-04-04T08:50:27;98153.06;;;6.33;34.47
27202;BME280;14717;46.924;15.474;2023-04-04T08:52:54;98142.75;;;6.18;35.04
27202;BME280;14717;46.924;15.474;2023-04-04T08:55:20;98140.88;;;6.50;35.15
27202;BME280;14717;46.924;15.474;2023-04-04T08:57:46;98141.09;;;6.43;34.49
27202;BME280;14717;46.924;15.474;2023-04-04T09:00:15;98145.28;;;6.82;33.87
27202;BME280;14717;46.924;15.474;2023-04-04T09:02:59;98147.91;;;6.67;34.18
27202;BME280;14717;46.924;15.474;2023-04-04T09:05:29;98136.00;;;6.57;33.23
27202;BME280;14717;46.924;15.474;2023-04-04T09:07:55;98150.81;;;6.56;32.23
27202;BME280;14717;46.924;15.474;2023-04-04T09:10:20;98135.88;;;6.73;34.64
27202;BME280;14717;46.924;15.474;2023-04-04T09:12:47;98137.88;;;6.51;33.71
27202;BME280;14717;46.924;15.474;2023-04-04T09:15:15;98132.69;;;6.86;32.49
27202;BME280;14717;46.924;15.474;2023-04-04T09:17:40;98136.84;;;6.57;32.30
27202;BME280;14717;46.924;15.474;2023-04-04T09:23:00;98127.50;;;6.58;32.17
27202;BME280;14717;46.924;15.474;2023-04-04T09:25:26;98119.22;;;6.53;32.33
27202;BME280;14717;46.924;15.474;2023-04-04T09:27:51;98119.25;;;6.27;32.61
27202;BME280;14717;46.924;15.474;2023-04-04T09:30:17;98110.28;;;6.36;32.96
27202;BME280;14717;46.924;15.474;2023-04-04T09:32:43;98119.41;;;6.73;32.92
27202;BME280;14717;46.924;15.474;2023-04-04T09:35:08;98110.47;;;6.87;31.66
27202;BME280;14717;46.924;15.474;2023-04-04T09:37:39;98094.94;;;7.08;30.95
27202;BME280;14717;46.924;15.474;2023-04-04T09:40:05;98091.78;;;7.30;31.61
27202;BME280;14717;46.924;15.474;2023-04-04T09:42:33;98082.63;;;7.66;32.42
27202;BME280;14717;46.924;15.474;2023-04-04T09:44:59;98099.41;;;7.69;31.44
27202;BME280;14717;46.924;15.474;2023-04-04T09:47:26;98098.97;;;7.36;29.93
27202;BME280;14717;46.924;15.474;2023-04-04T09:49:52;98087.72;;;6.92;30.34
27202;BME280;14717;46.924;15.474;2023-04-04T09:52:20;98081.63;;;6.90;29.64
27202;BME280;14717;46.924;15.474;2023-04-04T09:54:58;98091.16;;;7.19;31.61
27202;BME280;14717;46.924;15.474;2023-04-04T09:57:28;98087.38;;;7.29;30.28
27202;BME280;14717;46.924;15.474;2023-04-04T10:00:00;98088.22;;;7.30;30.59
27202;BME280;14717;46.924;15.474;2023-04-04T10:02:29;98086.78;;;7.22;30.34
27202;BME280;14717;46.924;15.474;2023-04-04T10:04:55;98088.00;;;7.41;30.22
27202;BME280;14717;46.924;15.474;2023-04-04T10:07:23;98076.50;;;7.54;31.97
27202;BME280;14717;46.924;15.474;2023-04-04T10:09:50;98076.44;;;7.44;29.87
27202;BME280;14717;46.924;15.474;2023-04-04T10:12:20;98068.31;;;7.64;30.25
27202;BME280;14717;46.924;15.474;2023-04-04T10:14:46;98071.94;;;7.79;30.95
27202;BME280;14717;46.924;15.474;2023-04-04T10:17:11;98069.97;;;7.70;30.18
27202;BME280;14717;46.924;15.474;2023-04-04T10:19:38;98068.25;;;7.54;28.87
27202;BME280;14717;46.924;15.474;2023-04-04T10:22:04;98066.66;;;7.68;30.77
27202;BME280;14717;46.924;15.474;2023-04-04T10:24:30;98067.75;;;7.67;29.32
27202;BME280;14717;46.924;15.474;2023-04-04T10:26:56;98066.75;;;7.88;30.16
27202;BME280;14717;46.924;15.474;2023-04-04T10:29:21;98052.47;;;8.01;29.83
27202;BME280;14717;46.924;15.474;2023-04-04T10:31:51;98044.03;;;8.27;30.37
27202;BME280;14717;46.924;15.474;2023-04-04T10:37:58;98056.31;;;8.00;29.24
27202;BME280;14717;46.924;15.474;2023-04-04T10:40:25;98045.50;;;7.73;28.71
27202;BME280;14717;46.924;15.474;2023-04-04T10:42:52;98033.94;;;7.62;29.91
27202;BME280;14717;46.924;15.474;2023-04-04T10:45:19;98024.41;;;7.94;30.88
27202;BME280;14717;46.924;15.474;2023-04-04T10:47:45;98032.16;;;8.36;29.53
27202;BME280;14717;46.924;15.474;2023-04-04T10:50:11;98026.41;;;8.48;30.08
27202;BME280;14717;46.924;15.474;2023-04-04T10:52:42;98033.28;;;8.35;29.19
27202;BME280;14717;46.924;15.474;2023-04-04T10:55:11;98022.81;;;8.42;30.04
27202;BME280;14717;46.924;15.474;2023-04-04T10:57:44;98025.31;;;8.48;30.18
27202;BME280;14717;46.924;15.474;2023-04-04T11:00:13;98028.31;;;8.72;29.84
27202;BME280;14717;46.924;15.474;2023-04-04T11:02:55;98034.38;;;8.29;28.77
27202;BME280;14717;46.924;15.474;2023-04-04T11:05:31;98032.47;;;8.25;28.84
27202;BME280;14717;46.924;15.474;2023-04-04T11:08:44;98017.81;;;8.09;28.61
27202;BME280;14717;46.924;15.474;2023-04-04T11:10:51;98020.63;;;8.34;30.93
27202;BME280;14717;46.924;15.474;2023-04-04T11:13:25;98002.47;;;8.48;28.59
27202;BME280;14717;46.924;15.474;2023-04-04T11:16:04;97999.38;;;8.94;31.94
27202;BME280;14717;46.924;15.474;2023-04-04T11:21:00;97991.38;;;8.92;29.62
27202;BME280;14717;46.924;15.474;2023-04-04T11:23:26;98000.25;;;8.55;28.07
27202;BME280;14717;46.924;15.474;2023-04-04T11:25:55;97989.22;;;8.60;28.91
27202;BME280;14717;46.924;15.474;2023-04-04T11:44:25;97969.59;;;8.96;28.09
27202;BME280;14717;46.924;15.474;2023-04-04T11:49:37;97964.06;;;9.06;28.51
27202;BME280;14717;46.924;15.474;2023-04-04T11:52:09;97967.34;;;9.08;29.07
27202;BME280;14717;46.924;15.474;2023-04-04T11:54:36;97964.63;;;9.03;28.16
27202;BME280;14717;46.924;15.474;2023-04-04T11:57:05;97975.97;;;8.77;29.38
27202;BME280;14717;46.924;15.474;2023-04-04T11:59:30;97971.75;;;9.19;29.37
27202;BME280;14717;46.924;15.474;2023-04-04T12:01:56;97967.13;;;8.94;28.69
27202;BME280;14717;46.924;15.474;2023-04-04T12:04:24;97952.78;;;9.60;28.34
27202;BME280;14717;46.924;15.474;2023-04-04T12:06:53;97947.16;;;9.27;28.38
27202;BME280;14717;46.924;15.474;2023-04-04T12:09:19;97948.13;;;9.51;29.28
27202;BME280;14717;46.924;15.474;2023-04-04T12:11:48;97938.75;;;9.57;30.21
27202;BME280;14717;46.924;15.474;2023-04-04T12:14:17;97933.88;;;9.39;28.04
27202;BME280;14717;46.924;15.474;2023-04-04T12:16:46;97940.25;;;9.30;27.86
27202;BME280;14717;46.924;15.474;2023-04-04T12:19:12;97953.63;;;8.98;27.79
27202;BME280;14717;46.924;15.474;2023-04-04T12:21:37;97955.59;;;8.88;28.45
27202;BME280;14717;46.924;15.474;2023-04-04T12:24:04;97954.72;;;8.87;27.40
27202;BME280;14717;46.924;15.474;2023-04-04T12:26:30;97936.84;;;8.90;26.12
27202;BME280;14717;46.924;15.474;2023-04-04T12:28:57;97946.47;;;8.82;25.95
27202;BME280;14717;46.924;15.474;2023-04-04T12:31:24;97933.28;;;9.47;27.70
27202;BME280;14717;46.924;15.474;2023-04-04T12:33:50;97942.38;;;9.47;27.80
27202;BME280;14717;46.924;15.474;2023-04-04T12:36:19;97939.41;;;9.34;27.57
27202;BME280;14717;46.924;15.474;2023-04-04T12:39:09;97940.59;;;9.13;26.43
27202;BME280;14717;46.924;15.474;2023-04-04T12:44:33;97926.72;;;9.33;25.74
27202;BME280;14717;46.924;15.474;2023-04-04T12:47:03;97917.38;;;9.29;26.02
27202;BME280;14717;46.924;15.474;2023-04-04T12:49:30;97923.16;;;9.75;26.99
27202;BME280;14717;46.924;15.474;2023-04-04T12:51:56;97921.63;;;9.60;25.89
27202;BME280;14717;46.924;15.474;2023-04-04T12:54:30;97930.31;;;9.38;25.66
27202;BME280;14717;46.924;15.474;2023-04-04T12:56:57;97919.59;;;9.27;25.80
27202;BME280;14717;46.924;15.474;2023-04-04T12:59:29;97921.94;;;9.53;24.68
27202;BME280;14717;46.924;15.474;2023-04-04T13:01:55;97922.19;;;9.57;24.82
27202;BME280;14717;46.924;15.474;2023-04-04T13:04:21;97904.44;;;9.68;25.09
27202;BME280;14717;46.924;15.474;2023-04-04T13:06:47;97907.25;;;9.63;25.67
27202;BME280;14717;46.924;15.474;2023-04-04T13:09:17;97912.78;;;9.58;25.65
27202;BME280;14717;46.924;15.474;2023-04-04T13:12:04;97902.09;;;9.94;27.42
27202;BME280;14717;46.924;15.474;2023-04-04T13:14:55;97906.25;;;9.87;25.58
27202;BME280;14717;46.924;15.474;2023-04-04T13:17:21;97895.56;;;10.14;26.17
27202;BME280;14717;46.924;15.474;2023-04-04T13:19:46;97899.25;;;10.04;25.27
27202;BME280;14717;46.924;15.474;2023-04-04T13:22:12;97901.41;;;10.12;24.80
27202;BME280;14717;46.924;15.474;2023-04-04T13:24:37;97903.09;;;10.08;27.57
27202;BME280;14717;46.924;15.474;2023-04-04T13:27:02;97900.00;;;9.76;25.89